sensor_id;sensor_type;location;lat;lon;timestamp;P1;durP1;ratioP1;P2;durP2;ratioP2
72194;SDS011;60095;50.180;9.032;2023-05-02T00:00:20;3.55;;;3.25;;
72194;SDS011;60095;50.180;9.032;2023-05-02T00:02:50;5.50;;;3.80;;
72194;SDS011;60095;50.180;9.032;2023-05-02T00:05:17;6.15;;;4.22;;
72194;SDS011;60095;50.180;9.032;2023-05-02T00:07:44;4.45;;;3.42;;
72194;SDS011;60095;50.180;9.032;2023-05-02T00:10:12;5.70;;;3.53;;
72194;SDS011;60095;50.180;9.032;2023-05-02T00:12:39;4.78;;;4.07;;
72194;SDS011;60095;50.180;9.032;2023-05-02T00:15:06;6.07;;;4.55;;
72194;SDS011;60095;50.180;9.032;2023-05-02T00:17:34;3.45;;;3.15;;
72194;SDS011;60095;50.180;9.032;2023-05-02T00:20:02;3.60;;;3.30;;
72194;SDS011;60095;50.180;9.032;2023-05-02T00:22:29;4.43;;;4.03;;
72194;SDS011;60095;50.180;9.032;2023-05-02T00:24:57;5.18;;;4.68;;
72194;SDS011;60095;50.180;9.032;2023-05-02T00:27:24;4.05;;;3.58;;
72194;SDS011;60095;50.180;9.032;2023-05-02T00:29:51;6.75;;;5.82;;
72194;SDS011;60095;50.180;9.032;2023-05-02T00:32:18;5.75;;;3.92;;
72194;SDS011;60095;50.180;9.032;2023-05-02T00:34:45;3.97;;;3.58;;
72194;SDS011;60095;50.180;9.032;2023-05-02T00:37:13;6.63;;;4.07;;
72194;SDS011;60095;50.180;9.032;2023-05-02T00:39:40;4.20;;;3.80;;
72194;SDS011;60095;50.180;9.032;2023-05-02T00:42:07;3.35;;;3.05;;
72194;SDS011;60095;50.180;9.032;2023-05-02T00:44:34;4.53;;;3.63;;
72194;SDS011;60095;50.180;9.032;2023-05-02T00:47:01;8.07;;;4.60;;
72194;SDS011;60095;50.180;9.032;2023-05-02T00:49:28;4.40;;;3.67;;
72194;SDS011;60095;50.180;9.032;2023-05-02T00:51:57;3.10;;;2.88;;
72194;SDS011;60095;50.180;9.032;2023-05-02T00:54:26;9.98;;;3.63;;
72194;SDS011;60095;50.180;9.032;2023-05-02T00:56:53;7.00;;;4.07;;
72194;SDS011;60095;50.180;9.032;2023-05-02T00:59:20;4.45;;;4.07;;
72194;SDS011;60095;50.180;9.032;2023-05-02T01:01:49;6.28;;;4.40;;
72194;SDS011;60095;50.180;9.032;2023-05-02T01:04:21;9.55;;;4.35;;
72194;SDS011;60095;50.180;9.032;2023-05-02T01:06:52;3.97;;;3.50;;
72194;SDS011;60095;50.180;9.032;2023-05-02T01:09:25;4.70;;;3.95;;
72194;SDS011;60095;50.180;9.032;2023-05-02T01:11:59;6.38;;;5.78;;
72194;SDS011;60095;50.180;9.032;2023-05-02T01:14:27;6.72;;;5.28;;
72194;SDS011;60095;50.180;9.032;2023-05-02T01:16:54;4.93;;;4.43;;
72194;SDS011;60095;50.180;9.032;2023-05-02T01:19:24;8.38;;;4.47;;
72194;SDS011;60095;50.180;9.032;2023-05-02T01:21:51;12.95;;;3.53;;
72194;SDS011;60095;50.180;9.032;2023-05-02T01:24:21;5.43;;;4.70;;
72194;SDS011;60095;50.180;9.032;2023-05-02T01:26:51;6.25;;;5.40;;
72194;SDS011;60095;50.180;9.032;2023-05-02T01:29:21;5.10;;;4.55;;
72194;SDS011;60095;50.180;9.032;2023-05-02T01:31:48;6.90;;;5.30;;
72194;SDS011;60095;50.180;9.032;2023-05-02T01:34:16;6.43;;;5.00;;
72194;SDS011;60095;50.180;9.032;2023-05-02T01:36:44;4.07;;;3.65;;
72194;SDS011;60095;50.180;9.032;2023-05-02T01:39:12;6.18;;;4.10;;
72194;SDS011;60095;50.180;9.032;2023-05-02T01:41:39;7.85;;;5.32;;
72194;SDS011;60095;50.180;9.032;2023-05-02T01:44:07;5.40;;;4.85;;
72194;SDS011;60095;50.180;9.032;2023-05-02T01:46:37;5.03;;;4.40;;
72194;SDS011;60095;50.180;9.032;2023-05-02T01:49:05;6.03;;;4.63;;
72194;SDS011;60095;50.180;9.032;2023-05-02T01:51:34;5.03;;;4.28;;
72194;SDS011;60095;50.180;9.032;2023-05-02T01:54:01;5.32;;;4.60;;
72194;SDS011;60095;50.180;9.032;2023-05-02T01:56:30;5.53;;;4.85;;
72194;SDS011;60095;50.180;9.032;2023-05-02T01:58:57;4.22;;;3.83;;
72194;SDS011;60095;50.180;9.032;2023-05-02T02:01:24;6.35;;;4.65;;
72194;SDS011;60095;50.180;9.032;2023-05-02T02:03:54;9.48;;;4.93;;
72194;SDS011;60095;50.180;9.032;2023-05-02T02:06:21;5.95;;;4.95;;
72194;SDS011;60095;50.180;9.032;2023-05-02T02:08:48;6.63;;;4.95;;
72194;SDS011;60095;50.180;9.032;2023-05-02T02:11:15;5.07;;;4.60;;
72194;SDS011;60095;50.180;9.032;2023-05-02T02:13:43;7.57;;;5.25;;
72194;SDS011;60095;50.180;9.032;2023-05-02T02:16:11;5.15;;;4.68;;
72194;SDS011;60095;50.180;9.032;2023-05-02T02:18:39;5.10;;;4.53;;
72194;SDS011;60095;50.180;9.032;2023-05-02T02:21:11;6.55;;;5.18;;
72194;SDS011;60095;50.180;9.032;2023-05-02T02:23:40;11.27;;;4.40;;
72194;SDS011;60095;50.180;9.032;2023-05-02T02:26:08;5.95;;;4.53;;
72194;SDS011;60095;50.180;9.032;2023-05-02T02:28:35;7.70;;;4.97;;
72194;SDS011;60095;50.180;9.032;2023-05-02T02:31:02;9.68;;;5.72;;
72194;SDS011;60095;50.180;9.032;2023-05-02T02:33:29;10.05;;;6.63;;
72194;SDS011;60095;50.180;9.032;2023-05-02T02:35:57;5.45;;;4.88;;
72194;SDS011;60095;50.180;9.032;2023-05-02T02:38:32;7.68;;;4.57;;
72194;SDS011;60095;50.180;9.032;2023-05-02T02:41:05;5.95;;;4.68;;
72194;SDS011;60095;50.180;9.032;2023-05-02T02:43:35;5.07;;;4.53;;
72194;SDS011;60095;50.180;9.032;2023-05-02T02:46:10;6.15;;;5.55;;
72194;SDS011;60095;50.180;9.032;2023-05-02T02:48:40;6.40;;;4.63;;
72194;SDS011;60095;50.180;9.032;2023-05-02T02:51:08;6.65;;;5.00;;
72194;SDS011;60095;50.180;9.032;2023-05-02T02:53:45;6.85;;;4.40;;
72194;SDS011;60095;50.180;9.032;2023-05-02T02:56:13;6.40;;;5.13;;
72194;SDS011;60095;50.180;9.032;2023-05-02T02:58:42;8.48;;;6.78;;
72194;SDS011;60095;50.180;9.032;2023-05-02T03:01:14;6.57;;;6.05;;
72194;SDS011;60095;50.180;9.032;2023-05-02T03:03:41;5.68;;;5.15;;
72194;SDS011;60095;50.180;9.032;2023-05-02T03:06:08;6.70;;;5.82;;
72194;SDS011;60095;50.180;9.032;2023-05-02T03:08:38;5.57;;;5.18;;
72194;SDS011;60095;50.180;9.032;2023-05-02T03:11:06;6.90;;;5.13;;
72194;SDS011;60095;50.180;9.032;2023-05-02T03:13:33;5.40;;;4.90;;
72194;SDS011;60095;50.180;9.032;2023-05-02T03:18:44;9.48;;;5.63;;
72194;SDS011;60095;50.180;9.032;2023-05-02T03:21:11;5.72;;;5.20;;
72194;SDS011;60095;50.180;9.032;2023-05-02T03:23:37;5.38;;;4.68;;
72194;SDS011;60095;50.180;9.032;2023-05-02T03:26:04;7.50;;;6.80;;
72194;SDS011;60095;50.180;9.032;2023-05-02T03:28:32;6.68;;;5.78;;
72194;SDS011;60095;50.180;9.032;2023-05-02T03:30:59;6.88;;;5.70;;
72194;SDS011;60095;50.180;9.032;2023-05-02T03:33:26;7.43;;;6.30;;
72194;SDS011;60095;50.180;9.032;2023-05-02T03:35:52;6.30;;;5.70;;
72194;SDS011;60095;50.180;9.032;2023-05-02T03:38:19;7.07;;;6.38;;
72194;SDS011;60095;50.180;9.032;2023-05-02T03:40:45;6.10;;;5.45;;
72194;SDS011;60095;50.180;9.032;2023-05-02T03:43:12;9.60;;;6.63;;
72194;SDS011;60095;50.180;9.032;2023-05-02T03:45:40;5.63;;;5.13;;
72194;SDS011;60095;50.180;9.032;2023-05-02T03:48:07;6.60;;;6.00;;
72194;SDS011;60095;50.180;9.032;2023-05-02T03:50:34;6.03;;;5.45;;
72194;SDS011;60095;50.180;9.032;2023-05-02T03:53:00;7.15;;;5.38;;
72194;SDS011;60095;50.180;9.032;2023-05-02T03:55:27;7.82;;;5.75;;
72194;SDS011;60095;50.180;9.032;2023-05-02T03:57:53;6.53;;;5.53;;
72194;SDS011;60095;50.180;9.032;2023-05-02T04:00:20;6.22;;;5.65;;
72194;SDS011;60095;50.180;9.032;2023-05-02T04:02:48;7.95;;;5.03;;
72194;SDS011;60095;50.180;9.032;2023-05-02T04:05:15;9.25;;;6.45;;
72194;SDS011;60095;50.180;9.032;2023-05-02T04:07:42;8.15;;;7.30;;
72194;SDS011;60095;50.180;9.032;2023-05-02T04:10:09;6.10;;;5.63;;
72194;SDS011;60095;50.180;9.032;2023-05-02T04:12:40;6.40;;;5.80;;
72194;SDS011;60095;50.180;9.032;2023-05-02T04:15:07;7.70;;;6.93;;
72194;SDS011;60095;50.180;9.032;2023-05-02T04:17:33;6.45;;;5.80;;
72194;SDS011;60095;50.180;9.032;2023-05-02T04:20:01;12.25;;;7.35;;
72194;SDS011;60095;50.180;9.032;2023-05-02T04:22:28;10.02;;;6.63;;
72194;SDS011;60095;50.180;9.032;2023-05-02T04:24:55;6.38;;;5.30;;
72194;SDS011;60095;50.180;9.032;2023-05-02T04:27:22;10.15;;;7.10;;
72194;SDS011;60095;50.180;9.032;2023-05-02T04:29:49;6.25;;;5.65;;
72194;SDS011;60095;50.180;9.032;2023-05-02T04:32:15;7.30;;;6.63;;
72194;SDS011;60095;50.180;9.032;2023-05-02T04:34:42;7.80;;;6.97;;
72194;SDS011;60095;50.180;9.032;2023-05-02T04:37:10;9.45;;;6.78;;
72194;SDS011;60095;50.180;9.032;2023-05-02T04:39:36;10.98;;;7.50;;
72194;SDS011;60095;50.180;9.032;2023-05-02T04:42:03;13.50;;;9.00;;
72194;SDS011;60095;50.180;9.032;2023-05-02T04:44:30;6.55;;;5.65;;
72194;SDS011;60095;50.180;9.032;2023-05-02T04:46:56;8.30;;;7.45;;
72194;SDS011;60095;50.180;9.032;2023-05-02T04:49:23;9.70;;;7.22;;
72194;SDS011;60095;50.180;9.032;2023-05-02T04:51:49;12.15;;;11.05;;
72194;SDS011;60095;50.180;9.032;2023-05-02T04:54:18;12.98;;;11.68;;
72194;SDS011;60095;50.180;9.032;2023-05-02T04:56:44;13.10;;;11.85;;
72194;SDS011;60095;50.180;9.032;2023-05-02T04:59:11;12.20;;;10.93;;
72194;SDS011;60095;50.180;9.032;2023-05-02T05:01:38;17.48;;;13.98;;
72194;SDS011;60095;50.180;9.032;2023-05-02T05:04:04;18.10;;;14.38;;
72194;SDS011;60095;50.180;9.032;2023-05-02T05:06:31;15.40;;;13.90;;
72194;SDS011;60095;50.180;9.032;2023-05-02T05:08:58;20.33;;;15.15;;
72194;SDS011;60095;50.180;9.032;2023-05-02T05:11:25;15.40;;;13.98;;
72194;SDS011;60095;50.180;9.032;2023-05-02T05:13:52;20.35;;;15.40;;
72194;SDS011;60095;50.180;9.032;2023-05-02T05:16:18;17.15;;;15.45;;
72194;SDS011;60095;50.180;9.032;2023-05-02T05:18:45;17.13;;;15.38;;
72194;SDS011;60095;50.180;9.032;2023-05-02T05:21:13;20.35;;;17.08;;
72194;SDS011;60095;50.180;9.032;2023-05-02T05:23:39;25.23;;;15.45;;
72194;SDS011;60095;50.180;9.032;2023-05-02T05:26:10;19.05;;;17.17;;
72194;SDS011;60095;50.180;9.032;2023-05-02T05:28:38;17.88;;;14.90;;
72194;SDS011;60095;50.180;9.032;2023-05-02T05:31:04;20.83;;;16.48;;
72194;SDS011;60095;50.180;9.032;2023-05-02T05:33:32;18.88;;;16.80;;
72194;SDS011;60095;50.180;9.032;2023-05-02T05:36:02;23.25;;;16.83;;
72194;SDS011;60095;50.180;9.032;2023-05-02T05:38:28;19.90;;;17.98;;
72194;SDS011;60095;50.180;9.032;2023-05-02T05:40:55;20.25;;;18.05;;
72194;SDS011;60095;50.180;9.032;2023-05-02T05:43:21;23.08;;;18.10;;
72194;SDS011;60095;50.180;9.032;2023-05-02T05:45:51;24.77;;;17.40;;
72194;SDS011;60095;50.180;9.032;2023-05-02T05:48:18;19.38;;;17.35;;
72194;SDS011;60095;50.180;9.032;2023-05-02T05:50:44;20.55;;;17.70;;
72194;SDS011;60095;50.180;9.032;2023-05-02T05:53:11;19.08;;;17.15;;
72194;SDS011;60095;50.180;9.032;2023-05-02T05:55:38;21.83;;;17.85;;
72194;SDS011;60095;50.180;9.032;2023-05-02T05:58:05;21.52;;;17.25;;
72194;SDS011;60095;50.180;9.032;2023-05-02T06:00:33;19.33;;;14.80;;
72194;SDS011;60095;50.180;9.032;2023-05-02T06:03:01;21.95;;;17.92;;
72194;SDS011;60095;50.180;9.032;2023-05-02T06:05:27;21.10;;;16.27;;
72194;SDS011;60095;50.180;9.032;2023-05-02T06:07:54;20.55;;;18.15;;
72194;SDS011;60095;50.180;9.032;2023-05-02T06:10:21;30.42;;;17.65;;
72194;SDS011;60095;50.180;9.032;2023-05-02T06:12:47;21.00;;;17.80;;
72194;SDS011;60095;50.180;9.032;2023-05-02T06:15:14;23.73;;;17.63;;
72194;SDS011;60095;50.180;9.032;2023-05-02T06:17:41;20.40;;;15.95;;
72194;SDS011;60095;50.180;9.032;2023-05-02T06:20:10;18.88;;;16.95;;
72194;SDS011;60095;50.180;9.032;2023-05-02T06:22:36;23.45;;;15.82;;
72194;SDS011;60095;50.180;9.032;2023-05-02T06:25:03;21.58;;;13.98;;
72194;SDS011;60095;50.180;9.032;2023-05-02T06:27:31;14.52;;;13.02;;
72194;SDS011;60095;50.180;9.032;2023-05-02T06:29:57;25.33;;;13.45;;
72194;SDS011;60095;50.180;9.032;2023-05-02T06:32:24;16.73;;;12.98;;
72194;SDS011;60095;50.180;9.032;2023-05-02T06:34:51;13.07;;;11.77;;
72194;SDS011;60095;50.180;9.032;2023-05-02T06:37:19;17.33;;;14.18;;
72194;SDS011;60095;50.180;9.032;2023-05-02T06:39:46;19.83;;;13.20;;
72194;SDS011;60095;50.180;9.032;2023-05-02T06:42:12;15.65;;;14.02;;
72194;SDS011;60095;50.180;9.032;2023-05-02T06:44:38;14.60;;;12.15;;
72194;SDS011;60095;50.180;9.032;2023-05-02T06:47:05;18.35;;;14.00;;
72194;SDS011;60095;50.180;9.032;2023-05-02T06:49:31;14.00;;;12.57;;
72194;SDS011;60095;50.180;9.032;2023-05-02T06:51:58;13.88;;;12.18;;
72194;SDS011;60095;50.180;9.032;2023-05-02T06:54:26;15.10;;;13.10;;
72194;SDS011;60095;50.180;9.032;2023-05-02T06:56:52;19.23;;;13.88;;
72194;SDS011;60095;50.180;9.032;2023-05-02T06:59:19;21.42;;;13.45;;
72194;SDS011;60095;50.180;9.032;2023-05-02T07:01:46;18.27;;;13.40;;
72194;SDS011;60095;50.180;9.032;2023-05-02T07:04:12;21.73;;;13.20;;
72194;SDS011;60095;50.180;9.032;2023-05-02T07:06:39;16.17;;;11.80;;
72194;SDS011;60095;50.180;9.032;2023-05-02T07:09:05;16.65;;;12.13;;
72194;SDS011;60095;50.180;9.032;2023-05-02T07:11:33;12.25;;;10.95;;
72194;SDS011;60095;50.180;9.032;2023-05-02T07:14:00;14.73;;;10.75;;
72194;SDS011;60095;50.180;9.032;2023-05-02T07:16:26;15.70;;;11.07;;
72194;SDS011;60095;50.180;9.032;2023-05-02T07:18:53;12.77;;;10.05;;
72194;SDS011;60095;50.180;9.032;2023-05-02T07:21:19;13.00;;;10.68;;
72194;SDS011;60095;50.180;9.032;2023-05-02T07:23:46;12.25;;;11.15;;
72194;SDS011;60095;50.180;9.032;2023-05-02T07:26:13;10.43;;;9.52;;
72194;SDS011;60095;50.180;9.032;2023-05-02T07:28:40;11.95;;;9.27;;
72194;SDS011;60095;50.180;9.032;2023-05-02T07:31:07;11.02;;;8.68;;
72194;SDS011;60095;50.180;9.032;2023-05-02T07:33:34;11.35;;;8.48;;
72194;SDS011;60095;50.180;9.032;2023-05-02T07:36:00;10.95;;;9.20;;
72194;SDS011;60095;50.180;9.032;2023-05-02T07:38:27;12.02;;;9.35;;
72194;SDS011;60095;50.180;9.032;2023-05-02T07:40:56;9.85;;;8.82;;
72194;SDS011;60095;50.180;9.032;2023-05-02T07:43:23;14.65;;;11.13;;
72194;SDS011;60095;50.180;9.032;2023-05-02T07:45:51;11.27;;;8.18;;
72194;SDS011;60095;50.180;9.032;2023-05-02T07:48:18;9.73;;;8.70;;
72194;SDS011;60095;50.180;9.032;2023-05-02T07:50:45;10.13;;;8.55;;
72194;SDS011;60095;50.180;9.032;2023-05-02T07:53:11;14.32;;;9.65;;
72194;SDS011;60095;50.180;9.032;2023-05-02T07:55:38;18.45;;;11.30;;
72194;SDS011;60095;50.180;9.032;2023-05-02T07:58:04;9.10;;;8.18;;
72194;SDS011;60095;50.180;9.032;2023-05-02T08:00:31;10.65;;;8.40;;
72194;SDS011;60095;50.180;9.032;2023-05-02T08:02:59;9.40;;;6.53;;
72194;SDS011;60095;50.180;9.032;2023-05-02T08:05:25;14.32;;;7.25;;
72194;SDS011;60095;50.180;9.032;2023-05-02T08:07:52;8.23;;;7.45;;
72194;SDS011;60095;50.180;9.032;2023-05-02T08:10:18;8.77;;;6.07;;
72194;SDS011;60095;50.180;9.032;2023-05-02T08:12:45;6.47;;;4.78;;
72194;SDS011;60095;50.180;9.032;2023-05-02T08:15:11;7.15;;;6.28;;
72194;SDS011;60095;50.180;9.032;2023-05-02T08:17:38;12.13;;;6.40;;
72194;SDS011;60095;50.180;9.032;2023-05-02T08:20:08;7.30;;;6.47;;
72194;SDS011;60095;50.180;9.032;2023-05-02T08:22:35;14.43;;;6.72;;
72194;SDS011;60095;50.180;9.032;2023-05-02T08:25:02;10.10;;;8.02;;
72194;SDS011;60095;50.180;9.032;2023-05-02T08:27:28;13.57;;;7.38;;
72194;SDS011;60095;50.180;9.032;2023-05-02T08:29:55;11.57;;;7.68;;
72194;SDS011;60095;50.180;9.032;2023-05-02T08:32:21;8.07;;;6.75;;
72194;SDS011;60095;50.180;9.032;2023-05-02T08:34:48;9.75;;;7.72;;
72194;SDS011;60095;50.180;9.032;2023-05-02T08:37:16;8.68;;;7.35;;
72194;SDS011;60095;50.180;9.032;2023-05-02T08:39:43;8.55;;;7.00;;
72194;SDS011;60095;50.180;9.032;2023-05-02T08:42:10;8.27;;;6.90;;
72194;SDS011;60095;50.180;9.032;2023-05-02T08:44:36;10.63;;;7.07;;
72194;SDS011;60095;50.180;9.032;2023-05-02T08:47:03;8.15;;;6.45;;
72194;SDS011;60095;50.180;9.032;2023-05-02T08:49:30;12.02;;;7.90;;
72194;SDS011;60095;50.180;9.032;2023-05-02T08:51:57;8.82;;;8.05;;
72194;SDS011;60095;50.180;9.032;2023-05-02T08:54:27;5.82;;;4.88;;
72194;SDS011;60095;50.180;9.032;2023-05-02T08:56:54;7.20;;;6.45;;
72194;SDS011;60095;50.180;9.032;2023-05-02T08:59:23;14.45;;;6.47;;
72194;SDS011;60095;50.180;9.032;2023-05-02T09:01:51;6.20;;;4.47;;
72194;SDS011;60095;50.180;9.032;2023-05-02T09:04:18;10.23;;;5.45;;
72194;SDS011;60095;50.180;9.032;2023-05-02T09:06:46;6.55;;;5.03;;
72194;SDS011;60095;50.180;9.032;2023-05-02T09:09:13;7.28;;;5.90;;
72194;SDS011;60095;50.180;9.032;2023-05-02T09:11:41;7.20;;;5.45;;
72194;SDS011;60095;50.180;9.032;2023-05-02T09:14:13;9.50;;;5.18;;
72194;SDS011;60095;50.180;9.032;2023-05-02T09:16:39;6.97;;;4.97;;
72194;SDS011;60095;50.180;9.032;2023-05-02T09:19:06;6.93;;;6.25;;
72194;SDS011;60095;50.180;9.032;2023-05-02T09:21:37;5.43;;;5.03;;
72194;SDS011;60095;50.180;9.032;2023-05-02T09:24:13;5.22;;;4.57;;
72194;SDS011;60095;50.180;9.032;2023-05-02T09:26:43;7.05;;;4.68;;
72194;SDS011;60095;50.180;9.032;2023-05-02T09:29:21;7.97;;;4.57;;
72194;SDS011;60095;50.180;9.032;2023-05-02T09:31:48;12.43;;;5.63;;
72194;SDS011;60095;50.180;9.032;2023-05-02T09:34:15;9.57;;;5.50;;
72194;SDS011;60095;50.180;9.032;2023-05-02T09:36:43;8.75;;;5.47;;
72194;SDS011;60095;50.180;9.032;2023-05-02T09:39:10;6.57;;;5.03;;
72194;SDS011;60095;50.180;9.032;2023-05-02T09:41:40;5.90;;;4.50;;
72194;SDS011;60095;50.180;9.032;2023-05-02T09:44:09;8.23;;;4.13;;
72194;SDS011;60095;50.180;9.032;2023-05-02T09:46:39;13.45;;;7.45;;
72194;SDS011;60095;50.180;9.032;2023-05-02T09:49:06;19.38;;;7.18;;
72194;SDS011;60095;50.180;9.032;2023-05-02T09:51:34;6.15;;;4.50;;
72194;SDS011;60095;50.180;9.032;2023-05-02T09:54:01;6.75;;;3.92;;
72194;SDS011;60095;50.180;9.032;2023-05-02T09:56:27;5.82;;;3.25;;
72194;SDS011;60095;50.180;9.032;2023-05-02T10:01:37;6.80;;;4.13;;
72194;SDS011;60095;50.180;9.032;2023-05-02T10:04:04;6.50;;;4.60;;
72194;SDS011;60095;50.180;9.032;2023-05-02T10:06:30;15.13;;;4.50;;
72194;SDS011;60095;50.180;9.032;2023-05-02T10:08:58;5.10;;;3.95;;
72194;SDS011;60095;50.180;9.032;2023-05-02T10:11:24;5.13;;;3.58;;
72194;SDS011;60095;50.180;9.032;2023-05-02T10:13:52;5.70;;;4.22;;
72194;SDS011;60095;50.180;9.032;2023-05-02T10:16:20;4.85;;;3.70;;
72194;SDS011;60095;50.180;9.032;2023-05-02T10:18:51;13.35;;;4.32;;
72194;SDS011;60095;50.180;9.032;2023-05-02T10:23:48;9.32;;;6.07;;
72194;SDS011;60095;50.180;9.032;2023-05-02T10:26:17;4.78;;;4.28;;
72194;SDS011;60095;50.180;9.032;2023-05-02T10:28:45;7.50;;;6.35;;
72194;SDS011;60095;50.180;9.032;2023-05-02T10:31:12;5.32;;;4.32;;
72194;SDS011;60095;50.180;9.032;2023-05-02T10:33:38;13.15;;;4.00;;
72194;SDS011;60095;50.180;9.032;2023-05-02T10:36:08;7.00;;;4.25;;
72194;SDS011;60095;50.180;9.032;2023-05-02T10:38:37;7.70;;;5.70;;
72194;SDS011;60095;50.180;9.032;2023-05-02T10:41:06;11.68;;;6.75;;
72194;SDS011;60095;50.180;9.032;2023-05-02T10:43:34;9.73;;;7.60;;
72194;SDS011;60095;50.180;9.032;2023-05-02T10:46:02;7.18;;;6.18;;
72194;SDS011;60095;50.180;9.032;2023-05-02T10:48:28;9.05;;;6.35;;
72194;SDS011;60095;50.180;9.032;2023-05-02T10:50:56;9.07;;;7.63;;
72194;SDS011;60095;50.180;9.032;2023-05-02T10:53:27;7.88;;;7.15;;
72194;SDS011;60095;50.180;9.032;2023-05-02T10:56:07;7.40;;;6.68;;
72194;SDS011;60095;50.180;9.032;2023-05-02T10:58:33;7.88;;;6.63;;
72194;SDS011;60095;50.180;9.032;2023-05-02T11:03:52;5.13;;;4.63;;
72194;SDS011;60095;50.180;9.032;2023-05-02T11:06:18;9.40;;;7.00;;
72194;SDS011;60095;50.180;9.032;2023-05-02T11:08:46;18.38;;;7.15;;
72194;SDS011;60095;50.180;9.032;2023-05-02T11:13:58;8.05;;;6.72;;
72194;SDS011;60095;50.180;9.032;2023-05-02T11:16:25;7.28;;;6.03;;
72194;SDS011;60095;50.180;9.032;2023-05-02T11:19:00;10.32;;;6.72;;
72194;SDS011;60095;50.180;9.032;2023-05-02T11:21:26;6.38;;;4.20;;
72194;SDS011;60095;50.180;9.032;2023-05-02T11:26:43;9.15;;;4.07;;
72194;SDS011;60095;50.180;9.032;2023-05-02T11:29:09;7.95;;;4.07;;
72194;SDS011;60095;50.180;9.032;2023-05-02T11:34:27;3.15;;;2.63;;
72194;SDS011;60095;50.180;9.032;2023-05-02T11:36:54;1.77;;;1.45;;
72194;SDS011;60095;50.180;9.032;2023-05-02T11:39:21;3.13;;;2.17;;
72194;SDS011;60095;50.180;9.032;2023-05-02T11:41:49;3.95;;;2.80;;
72194;SDS011;60095;50.180;9.032;2023-05-02T11:44:17;3.88;;;2.17;;
72194;SDS011;60095;50.180;9.032;2023-05-02T11:46:44;5.53;;;3.30;;
72194;SDS011;60095;50.180;9.032;2023-05-02T11:49:11;3.85;;;3.05;;
72194;SDS011;60095;50.180;9.032;2023-05-02T11:51:38;3.30;;;1.42;;
72194;SDS011;60095;50.180;9.032;2023-05-02T11:54:05;2.00;;;1.50;;
72194;SDS011;60095;50.180;9.032;2023-05-02T11:56:34;2.22;;;1.65;;
72194;SDS011;60095;50.180;9.032;2023-05-02T11:59:02;1.30;;;0.98;;
72194;SDS011;60095;50.180;9.032;2023-05-02T12:01:30;6.93;;;2.00;;
72194;SDS011;60095;50.180;9.032;2023-05-02T12:04:00;3.42;;;2.35;;
72194;SDS011;60095;50.180;9.032;2023-05-02T12:06:27;8.25;;;4.43;;
72194;SDS011;60095;50.180;9.032;2023-05-02T12:09:04;4.05;;;1.90;;
72194;SDS011;60095;50.180;9.032;2023-05-02T12:11:31;5.38;;;3.33;;
72194;SDS011;60095;50.180;9.032;2023-05-02T12:13:58;2.88;;;2.45;;
72194;SDS011;60095;50.180;9.032;2023-05-02T12:16:26;6.25;;;1.88;;
72194;SDS011;60095;50.180;9.032;2023-05-02T12:18:53;3.20;;;2.10;;
72194;SDS011;60095;50.180;9.032;2023-05-02T12:21:22;1.95;;;1.23;;
72194;SDS011;60095;50.180;9.032;2023-05-02T12:23:48;2.38;;;1.15;;
72194;SDS011;60095;50.180;9.032;2023-05-02T12:26:17;1.85;;;1.02;;
72194;SDS011;60095;50.180;9.032;2023-05-02T12:28:47;1.40;;;1.08;;
72194;SDS011;60095;50.180;9.032;2023-05-02T12:31:14;0.88;;;0.68;;
72194;SDS011;60095;50.180;9.032;2023-05-02T12:33:42;1.15;;;1.02;;
72194;SDS011;60095;50.180;9.032;2023-05-02T12:36:08;1.20;;;0.70;;
72194;SDS011;60095;50.180;9.032;2023-05-02T12:38:35;6.03;;;2.30;;
72194;SDS011;60095;50.180;9.032;2023-05-02T12:41:02;1.67;;;1.05;;
72194;SDS011;60095;50.180;9.032;2023-05-02T12:43:41;2.38;;;2.05;;
72194;SDS011;60095;50.180;9.032;2023-05-02T12:46:08;2.70;;;1.50;;
72194;SDS011;60095;50.180;9.032;2023-05-02T12:48:35;3.20;;;1.25;;
72194;SDS011;60095;50.180;9.032;2023-05-02T12:51:03;1.95;;;0.57;;
72194;SDS011;60095;50.180;9.032;2023-05-02T12:53:38;3.28;;;2.30;;
72194;SDS011;60095;50.180;9.032;2023-05-02T12:56:05;1.40;;;0.95;;
72194;SDS011;60095;50.180;9.032;2023-05-02T12:58:39;2.53;;;1.02;;
72194;SDS011;60095;50.180;9.032;2023-05-02T13:01:06;1.63;;;1.13;;
72194;SDS011;60095;50.180;9.032;2023-05-02T13:03:32;2.70;;;1.65;;
72194;SDS011;60095;50.180;9.032;2023-05-02T13:05:59;1.55;;;1.45;;
72194;SDS011;60095;50.180;9.032;2023-05-02T13:08:27;2.20;;;1.50;;
72194;SDS011;60095;50.180;9.032;2023-05-02T13:10:53;3.58;;;1.33;;
72194;SDS011;60095;50.180;9.032;2023-05-02T13:13:20;1.42;;;0.88;;
72194;SDS011;60095;50.180;9.032;2023-05-02T13:15:46;2.60;;;1.58;;
72194;SDS011;60095;50.180;9.032;2023-05-02T13:18:13;1.67;;;1.55;;
72194;SDS011;60095;50.180;9.032;2023-05-02T13:20:40;2.30;;;1.60;;
72194;SDS011;60095;50.180;9.032;2023-05-02T13:23:06;1.02;;;0.93;;
72194;SDS011;60095;50.180;9.032;2023-05-02T13:25:34;2.25;;;1.20;;
72194;SDS011;60095;50.180;9.032;2023-05-02T13:28:01;1.98;;;1.08;;
72194;SDS011;60095;50.180;9.032;2023-05-02T13:30:28;1.13;;;1.00;;
72194;SDS011;60095;50.180;9.032;2023-05-02T13:32:54;1.45;;;0.90;;
72194;SDS011;60095;50.180;9.032;2023-05-02T13:35:22;1.90;;;0.40;;
72194;SDS011;60095;50.180;9.032;2023-05-02T13:37:49;0.45;;;0.25;;
72194;SDS011;60095;50.180;9.032;2023-05-02T13:40:16;0.50;;;0.40;;
72194;SDS011;60095;50.180;9.032;2023-05-02T13:42:44;0.73;;;0.32;;
72194;SDS011;60095;50.180;9.032;2023-05-02T13:45:10;0.40;;;0.10;;
72194;SDS011;60095;50.180;9.032;2023-05-02T13:47:38;0.77;;;0.28;;
72194;SDS011;60095;50.180;9.032;2023-05-02T13:50:05;0.82;;;0.50;;
72194;SDS011;60095;50.180;9.032;2023-05-02T13:52:31;0.63;;;0.32;;
72194;SDS011;60095;50.180;9.032;2023-05-02T13:54:58;2.80;;;0.98;;
72194;SDS011;60095;50.180;9.032;2023-05-02T13:57:25;1.55;;;0.77;;
72194;SDS011;60095;50.180;9.032;2023-05-02T13:59:53;2.22;;;0.90;;
72194;SDS011;60095;50.180;9.032;2023-05-02T14:02:20;5.00;;;0.63;;
72194;SDS011;60095;50.180;9.032;2023-05-02T14:04:46;1.60;;;1.25;;
72194;SDS011;60095;50.180;9.032;2023-05-02T14:07:12;2.13;;;1.17;;
72194;SDS011;60095;50.180;9.032;2023-05-02T14:09:39;2.08;;;1.10;;
72194;SDS011;60095;50.180;9.032;2023-05-02T14:12:05;0.75;;;0.47;;
72194;SDS011;60095;50.180;9.032;2023-05-02T14:14:32;1.30;;;0.75;;
72194;SDS011;60095;50.180;9.032;2023-05-02T14:17:01;1.52;;;0.68;;
72194;SDS011;60095;50.180;9.032;2023-05-02T14:19:29;1.52;;;0.95;;
72194;SDS011;60095;50.180;9.032;2023-05-02T14:21:58;0.77;;;0.70;;
72194;SDS011;60095;50.180;9.032;2023-05-02T14:24:25;1.98;;;0.95;;
72194;SDS011;60095;50.180;9.032;2023-05-02T14:26:51;6.60;;;0.85;;
72194;SDS011;60095;50.180;9.032;2023-05-02T14:29:18;1.92;;;0.75;;
72194;SDS011;60095;50.180;9.032;2023-05-02T14:31:45;1.00;;;0.65;;
72194;SDS011;60095;50.180;9.032;2023-05-02T14:34:12;1.13;;;0.52;;
72194;SDS011;60095;50.180;9.032;2023-05-02T14:36:39;0.98;;;0.60;;
72194;SDS011;60095;50.180;9.032;2023-05-02T14:39:06;1.52;;;0.75;;
72194;SDS011;60095;50.180;9.032;2023-05-02T14:41:32;2.05;;;0.50;;
72194;SDS011;60095;50.180;9.032;2023-05-02T14:43:59;0.30;;;0.22;;
72194;SDS011;60095;50.180;9.032;2023-05-02T14:46:25;0.30;;;0.20;;
72194;SDS011;60095;50.180;9.032;2023-05-02T14:48:51;1.63;;;0.93;;
72194;SDS011;60095;50.180;9.032;2023-05-02T14:51:21;1.15;;;0.90;;
72194;SDS011;60095;50.180;9.032;2023-05-02T14:53:47;3.35;;;0.73;;
72194;SDS011;60095;50.180;9.032;2023-05-02T14:56:14;0.77;;;0.45;;
72194;SDS011;60095;50.180;9.032;2023-05-02T14:58:42;0.63;;;0.43;;
72194;SDS011;60095;50.180;9.032;2023-05-02T15:01:15;1.40;;;0.68;;